createdAt,value
2022-11-02T00:01:40.865Z,16.35
2022-11-02T00:06:42.510Z,15.18
2022-11-02T00:11:44.141Z,15.00
2022-11-02T00:16:45.983Z,15.32
2022-11-02T00:21:47.554Z,14.45
2022-11-02T00:26:49.114Z,15.57
2022-11-02T00:31:50.896Z,15.13
2022-11-02T00:36:55.616Z,15.23
2022-11-02T00:41:57.332Z,14.27
2022-11-02T00:46:58.870Z,14.93
2022-11-02T00:52:00.477Z,14.43
2022-11-02T01:02:08.971Z,14.45
2022-11-02T01:07:10.612Z,13.45
2022-11-02T01:12:12.153Z,13.68
2022-11-02T01:17:13.838Z,13.45
2022-11-02T01:22:15.401Z,12.85
2022-11-02T01:27:16.947Z,12.15
2022-11-02T01:32:18.559Z,11.68
2022-11-02T01:37:20.105Z,12.43
2022-11-02T01:42:24.458Z,12.02
2022-11-02T01:47:31.389Z,11.80
2022-11-02T01:52:36.233Z,11.45
2022-11-02T01:57:39.067Z,10.98
2022-11-02T02:02:54.663Z,11.63
2022-11-02T02:07:56.706Z,12.30
2022-11-02T02:12:58.439Z,11.68
2022-11-02T02:18:07.056Z,11.82
2022-11-02T02:23:33.290Z,11.48
2022-11-02T02:29:11.710Z,10.73
2022-11-02T02:34:20.103Z,10.43
2022-11-02T02:39:43.151Z,10.87
2022-11-02T02:45:04.550Z,11.07
2022-11-02T02:50:15.680Z,11.55
2022-11-02T02:55:23.019Z,11.30
2022-11-02T03:00:24.631Z,10.73
2022-11-02T03:05:29.653Z,11.50
2022-11-02T03:10:54.202Z,10.50
2022-11-02T03:16:02.870Z,11.15
2022-11-02T03:21:13.377Z,11.13
2022-11-02T03:26:27.600Z,11.20
2022-11-02T03:31:39.136Z,10.57
2022-11-02T03:36:51.119Z,11.18
2022-11-02T03:41:55.159Z,11.88
2022-11-02T03:47:01.952Z,11.23
2022-11-02T03:52:08.798Z,11.05
2022-11-02T03:57:18.543Z,13.02
2022-11-02T04:02:20.225Z,10.77
2022-11-02T04:07:27.585Z,10.70
2022-11-02T04:12:47.625Z,11.98
2022-11-02T04:18:07.753Z,11.48
2022-11-02T04:23:29.825Z,11.43
2022-11-02T04:28:31.498Z,10.45
2022-11-02T04:33:33.062Z,10.30
2022-11-02T04:38:40.392Z,10.90
2022-11-02T04:43:41.958Z,10.75
2022-11-02T04:48:43.496Z,10.55
2022-11-02T04:53:45.084Z,11.02
2022-11-02T04:58:51.040Z,10.43
2022-11-02T05:03:54.083Z,10.52
2022-11-02T05:08:56.039Z,10.38
2022-11-02T05:13:57.585Z,10.02
2022-11-02T05:18:59.147Z,10.65
2022-11-02T05:24:00.716Z,11.07
2022-11-02T05:29:02.773Z,9.95
2022-11-02T05:34:04.394Z,11.07
2022-11-02T05:39:06.018Z,10.25
2022-11-02T05:44:07.603Z,10.38
2022-11-02T05:49:09.205Z,9.93
2022-11-02T05:54:10.748Z,10.98
2022-11-02T05:59:12.324Z,11.23
2022-11-02T06:04:13.977Z,10.75
2022-11-02T06:09:15.551Z,10.05
2022-11-02T06:14:17.101Z,10.27
2022-11-02T06:19:18.656Z,10.45
2022-11-02T06:24:20.256Z,10.95
2022-11-02T06:29:21.873Z,10.93
2022-11-02T06:34:23.433Z,10.85
2022-11-02T06:39:25.125Z,10.30
2022-11-02T06:44:26.672Z,11.48
2022-11-02T06:49:28.207Z,11.52
2022-11-02T06:54:29.730Z,10.77
2022-11-02T06:59:31.318Z,11.40
2022-11-02T07:04:32.869Z,11.43
2022-11-02T07:09:35.092Z,10.63
2022-11-02T07:14:36.639Z,11.32
2022-11-02T07:19:38.227Z,10.52
2022-11-02T07:24:39.809Z,9.73
2022-11-02T07:29:41.394Z,10.35
2022-11-02T07:34:42.949Z,11.20
2022-11-02T07:39:44.523Z,10.50
2022-11-02T07:44:46.061Z,9.90
2022-11-02T07:49:47.627Z,10.30
2022-11-02T07:54:49.188Z,10.52
2022-11-02T07:59:50.729Z,10.93
2022-11-02T08:04:52.720Z,9.80
2022-11-02T08:09:54.306Z,9.73
2022-11-02T08:14:56.835Z,8.80
2022-11-02T08:19:58.431Z,8.70
2022-11-02T08:25:00.016Z,8.15
2022-11-02T08:30:01.602Z,7.90
2022-11-02T08:35:03.242Z,7.97
2022-11-02T08:40:05.293Z,7.30
2022-11-02T08:45:07.461Z,6.75
2022-11-02T08:50:10.424Z,6.80
2022-11-02T08:55:12.009Z,7.00
2022-11-02T09:00:14.219Z,4.93
2022-11-02T09:05:15.848Z,5.00
2022-11-02T09:10:17.398Z,4.47
2022-11-02T09:15:19.311Z,3.50
2022-11-02T09:20:22.815Z,3.40
2022-11-02T09:25:24.582Z,3.78
2022-11-02T09:30:28.832Z,3.67
2022-11-02T09:35:43.757Z,3.40
2022-11-02T09:40:54.863Z,3.72
2022-11-02T09:46:11.028Z,4.43
2022-11-02T09:51:20.792Z,3.38
2022-11-02T09:56:22.636Z,3.75
2022-11-02T10:02:05.427Z,4.03
2022-11-02T10:07:35.981Z,2.63
2022-11-02T10:12:43.396Z,2.58
2022-11-02T10:17:47.786Z,2.20
2022-11-02T10:22:49.620Z,2.75
2022-11-02T10:28:01.097Z,2.97
2022-11-02T10:33:12.971Z,2.33
2022-11-02T10:38:24.497Z,2.40
2022-11-02T10:43:40.813Z,2.75
2022-11-02T10:49:17.652Z,2.63
2022-11-02T10:54:23.989Z,2.50
2022-11-02T10:59:30.989Z,2.50
2022-11-02T11:04:34.240Z,2.70
2022-11-02T11:09:46.830Z,2.60
2022-11-02T11:20:33.464Z,2.55
2022-11-02T11:25:35.458Z,2.78
2022-11-02T11:30:58.863Z,2.70
2022-11-02T11:36:00.612Z,2.15
2022-11-02T11:41:03.652Z,2.53
2022-11-02T11:46:07.797Z,2.33
2022-11-02T11:51:54.027Z,2.60
2022-11-02T11:57:16.473Z,2.40
2022-11-02T12:02:30.776Z,2.60
2022-11-02T12:07:55.860Z,2.65
2022-11-02T12:13:03.558Z,2.38
2022-11-02T12:18:42.721Z,2.22
2022-11-02T12:23:44.261Z,2.40
2022-11-02T12:29:22.034Z,2.55
2022-11-02T12:35:27.400Z,2.38
2022-11-02T12:40:52.887Z,2.60
2022-11-02T12:46:07.664Z,2.92
2022-11-02T12:51:14.781Z,2.47
2022-11-02T12:56:44.350Z,2.30
2022-11-02T13:01:51.072Z,3.38
2022-11-02T13:07:02.402Z,2.80
2022-11-02T13:12:10.172Z,2.55
2022-11-02T13:17:21.518Z,2.00
2022-11-02T13:22:28.652Z,2.40
2022-11-02T13:27:37.604Z,2.28
2022-11-02T13:33:00.686Z,2.17
2022-11-02T13:38:34.192Z,2.17
2022-11-02T13:44:16.684Z,1.92
2022-11-02T13:49:35.408Z,2.40
2022-11-02T13:54:42.952Z,2.40
2022-11-02T13:59:45.426Z,2.78
2022-11-02T14:04:48.651Z,2.60
2022-11-02T14:09:51.047Z,3.25
2022-11-02T14:15:14.299Z,2.65
2022-11-02T14:20:34.433Z,2.80
2022-11-02T14:25:56.294Z,2.67
2022-11-02T14:31:03.691Z,2.17
2022-11-02T14:36:17.164Z,2.00
2022-11-02T14:41:44.177Z,2.83
2022-11-02T14:46:56.845Z,2.22
2022-11-02T14:52:13.638Z,3.15
2022-11-02T14:57:18.121Z,2.20
2022-11-02T15:02:31.287Z,2.20
2022-11-02T15:07:38.514Z,2.08
2022-11-02T15:12:41.354Z,1.70
2022-11-02T15:17:43.152Z,2.20
2022-11-02T15:22:52.932Z,2.17
2022-11-02T15:28:06.564Z,2.30
2022-11-02T15:33:35.790Z,2.33
2022-11-02T15:38:40.167Z,4.20
2022-11-02T15:49:49.621Z,2.50
2022-11-02T15:55:28.841Z,2.60
2022-11-02T16:00:30.484Z,2.65
2022-11-02T16:05:41.831Z,2.63
2022-11-02T16:10:43.861Z,3.20
2022-11-02T16:15:48.872Z,3.08
2022-11-02T16:20:51.114Z,3.83
2022-11-02T16:25:56.290Z,6.68
2022-11-02T16:31:17.251Z,5.93
2022-11-02T16:36:31.314Z,5.55
2022-11-02T16:41:34.706Z,4.30
2022-11-02T16:46:58.442Z,6.13
2022-11-02T16:52:17.337Z,6.70
2022-11-02T16:57:23.033Z,4.30
2022-11-02T17:02:36.570Z,5.15
2022-11-02T17:07:41.909Z,6.78
2022-11-02T17:12:45.314Z,37.35
2022-11-02T17:17:47.054Z,36.63
2022-11-02T17:22:58.343Z,13.57
2022-11-02T17:28:03.797Z,11.07
2022-11-02T17:33:12.183Z,7.35
2022-11-02T17:38:14.112Z,9.10
2022-11-02T17:43:15.677Z,13.30
2022-11-02T17:48:17.196Z,8.55
2022-11-02T17:53:18.785Z,9.68
2022-11-02T17:58:20.391Z,6.47
2022-11-02T18:03:25.517Z,9.50
2022-11-02T18:08:28.845Z,15.60
2022-11-02T18:13:30.395Z,8.88
2022-11-02T18:18:31.936Z,7.97
2022-11-02T18:23:35.173Z,6.13
2022-11-02T18:28:36.755Z,6.90
2022-11-02T18:33:38.322Z,6.63
2022-11-02T18:38:39.980Z,7.75
2022-11-02T18:43:41.542Z,7.18
2022-11-02T18:48:43.265Z,11.57
2022-11-02T18:53:44.829Z,8.38
2022-11-02T18:58:48.707Z,9.07
2022-11-02T19:03:56.057Z,8.00
2022-11-02T19:09:16.274Z,7.40
2022-11-02T19:14:18.432Z,6.82
2022-11-02T19:19:20.660Z,6.70
2022-11-02T19:24:22.542Z,7.18
2022-11-02T19:29:24.257Z,7.90
2022-11-02T19:34:25.832Z,7.60
2022-11-02T19:39:27.414Z,7.25
2022-11-02T19:44:29.594Z,7.78
2022-11-02T19:49:31.151Z,7.78
2022-11-02T19:54:32.731Z,7.53
2022-11-02T19:59:34.300Z,10.57
2022-11-02T20:04:41.980Z,9.55
2022-11-02T20:09:44.910Z,9.88
2022-11-02T20:14:46.482Z,9.65
2022-11-02T20:19:48.033Z,9.00
2022-11-02T20:24:49.558Z,8.07
2022-11-02T20:29:51.096Z,7.93
2022-11-02T20:34:52.740Z,7.57
2022-11-02T20:39:54.262Z,7.13
2022-11-02T20:44:56.360Z,7.22
2022-11-02T20:49:57.900Z,8.25
2022-11-02T20:55:01.063Z,11.23
2022-11-02T21:00:02.755Z,9.32
2022-11-02T21:05:04.959Z,10.40
2022-11-02T21:10:07.390Z,17.35
2022-11-02T21:15:09.223Z,12.68
2022-11-02T21:20:33.038Z,17.02
2022-11-02T21:25:33.950Z,28.25
2022-11-02T21:30:35.568Z,16.20
2022-11-02T21:35:37.353Z,14.35
2022-11-02T21:40:38.909Z,11.95
2022-11-02T21:45:40.482Z,11.65
2022-11-02T21:50:42.022Z,14.80
2022-11-02T21:55:43.551Z,13.80
2022-11-02T22:01:03.582Z,11.30
2022-11-02T22:06:05.445Z,10.45
2022-11-02T22:11:12.176Z,9.93
2022-11-02T22:16:17.625Z,8.63
2022-11-02T22:21:19.649Z,7.57
2022-11-02T22:26:23.265Z,7.55
2022-11-02T22:31:27.958Z,8.10
2022-11-02T22:36:31.847Z,8.05
2022-11-02T22:41:41.364Z,9.77
2022-11-02T22:46:48.319Z,7.32
2022-11-02T22:51:50.582Z,7.22
2022-11-02T22:56:52.122Z,8.80
2022-11-02T23:01:53.714Z,9.65
2022-11-02T23:06:55.327Z,10.00
2022-11-02T23:11:56.908Z,8.77
2022-11-02T23:16:58.835Z,9.63
2022-11-02T23:22:25.152Z,8.85
2022-11-02T23:27:26.849Z,8.63
2022-11-02T23:32:28.442Z,7.95
2022-11-02T23:37:30.682Z,7.22
2022-11-02T23:42:32.439Z,6.90
2022-11-02T23:47:52.278Z,7.05
2022-11-02T23:53:12.399Z,7.20
2022-11-02T23:58:14.328Z,6.15
